createdAt,value
2022-10-26T00:02:07.782Z,30.05
2022-10-26T00:04:38.815Z,24.08
2022-10-26T00:07:15.633Z,24.23
2022-10-26T00:09:46.272Z,23.63
2022-10-26T00:12:15.703Z,31.27
2022-10-26T00:14:49.329Z,24.52
2022-10-26T00:17:20.757Z,24.70
2022-10-26T00:19:49.431Z,29.88
2022-10-26T00:22:18.214Z,27.10
2022-10-26T00:24:48.203Z,23.80
2022-10-26T00:27:17.317Z,23.00
2022-10-26T00:29:47.751Z,28.55
2022-10-26T00:32:16.278Z,37.15
2022-10-26T00:34:44.896Z,27.75
2022-10-26T00:37:13.607Z,32.05
2022-10-26T00:39:42.846Z,27.33
2022-10-26T00:42:16.894Z,23.48
2022-10-26T00:45:09.244Z,23.25
2022-10-26T00:47:44.710Z,19.08
2022-10-26T00:52:47.227Z,26.65
2022-10-26T00:55:21.248Z,24.88
2022-10-26T00:57:55.143Z,24.40
2022-10-26T01:00:34.387Z,22.88
2022-10-26T01:03:08.148Z,21.30
2022-10-26T01:05:43.050Z,18.17
2022-10-26T01:08:13.188Z,31.52
2022-10-26T01:10:44.005Z,29.10
2022-10-26T01:13:15.572Z,25.17
2022-10-26T01:16:00.363Z,23.05
2022-10-26T01:18:40.998Z,22.25
2022-10-26T01:21:55.872Z,19.70
2022-10-26T01:25:07.577Z,20.02
2022-10-26T01:27:41.250Z,18.77
2022-10-26T01:30:36.440Z,32.40
2022-10-26T01:36:12.739Z,18.55
2022-10-26T01:38:55.998Z,17.48
2022-10-26T01:41:32.636Z,13.48
2022-10-26T01:44:06.657Z,16.05
2022-10-26T01:46:42.715Z,13.73
2022-10-26T01:49:15.652Z,17.90
2022-10-26T01:51:50.608Z,16.95
2022-10-26T01:54:19.627Z,15.60
2022-10-26T01:56:53.121Z,23.33
2022-10-26T01:59:36.448Z,15.18
2022-10-26T02:02:50.551Z,17.15
2022-10-26T02:05:33.557Z,17.02
2022-10-26T02:08:23.797Z,17.17
2022-10-26T02:11:15.204Z,19.98
2022-10-26T02:13:49.625Z,21.08
2022-10-26T02:19:05.074Z,15.35
2022-10-26T02:21:40.381Z,18.42
2022-10-26T02:24:13.881Z,19.02
2022-10-26T02:26:47.095Z,17.73
2022-10-26T02:29:21.167Z,20.05
2022-10-26T02:31:53.036Z,20.83
2022-10-26T02:34:29.095Z,18.90
2022-10-26T02:37:02.609Z,14.07
2022-10-26T02:39:34.745Z,16.65
2022-10-26T02:42:07.014Z,16.98
2022-10-26T02:44:44.728Z,14.05
2022-10-26T02:47:15.365Z,15.75
2022-10-26T02:49:51.930Z,21.00
2022-10-26T02:52:30.017Z,17.90
2022-10-26T02:55:06.852Z,20.42
2022-10-26T02:57:40.517Z,18.20
2022-10-26T03:00:12.407Z,19.17
2022-10-26T03:02:43.519Z,16.30
2022-10-26T03:05:22.423Z,23.42
2022-10-26T03:07:51.398Z,15.93
2022-10-26T03:10:20.731Z,17.30
2022-10-26T03:12:49.263Z,19.85
2022-10-26T03:15:18.115Z,16.42
2022-10-26T03:17:46.998Z,19.50
2022-10-26T03:20:19.991Z,18.17
2022-10-26T03:22:52.763Z,16.60
2022-10-26T03:25:24.219Z,15.60
2022-10-26T03:27:59.534Z,16.70
2022-10-26T03:33:00.679Z,14.98
2022-10-26T03:35:30.976Z,20.08
2022-10-26T03:37:59.483Z,16.13
2022-10-26T03:40:28.691Z,19.10
2022-10-26T03:42:57.172Z,18.83
2022-10-26T03:45:25.985Z,12.82
2022-10-26T03:47:54.973Z,20.23
2022-10-26T03:50:24.867Z,19.98
2022-10-26T03:52:56.514Z,21.85
2022-10-26T03:55:26.185Z,21.23
2022-10-26T03:57:54.791Z,15.98
2022-10-26T04:00:25.034Z,17.30
2022-10-26T04:02:59.547Z,16.02
2022-10-26T04:05:31.200Z,21.23
2022-10-26T04:08:04.418Z,23.65
2022-10-26T04:10:34.152Z,22.67
2022-10-26T04:13:02.826Z,17.60
2022-10-26T04:15:36.199Z,18.17
2022-10-26T04:18:05.627Z,18.50
2022-10-26T04:20:39.282Z,21.30
2022-10-26T04:23:14.204Z,15.27
2022-10-26T04:25:46.863Z,18.42
2022-10-26T04:28:20.384Z,19.55
2022-10-26T04:30:50.086Z,18.25
2022-10-26T04:33:18.651Z,13.50
2022-10-26T04:35:48.187Z,13.40
2022-10-26T04:38:18.124Z,12.73
2022-10-26T04:40:47.349Z,18.77
2022-10-26T04:43:16.300Z,14.95
2022-10-26T04:45:47.664Z,16.02
2022-10-26T04:48:16.170Z,13.48
2022-10-26T04:50:44.614Z,16.45
2022-10-26T04:53:13.094Z,18.42
2022-10-26T04:55:47.714Z,14.13
2022-10-26T04:58:17.302Z,17.98
2022-10-26T05:00:47.223Z,15.90
2022-10-26T05:03:16.025Z,16.35
2022-10-26T05:05:44.765Z,14.27
2022-10-26T05:08:14.602Z,12.75
2022-10-26T05:10:53.603Z,13.50
2022-10-26T05:13:23.336Z,13.77
2022-10-26T05:15:54.633Z,17.63
2022-10-26T05:18:27.186Z,18.70
2022-10-26T05:20:56.838Z,14.65
2022-10-26T05:23:26.091Z,16.58
2022-10-26T05:25:57.439Z,17.58
2022-10-26T05:28:29.093Z,12.40
2022-10-26T05:31:00.760Z,15.27
2022-10-26T05:33:29.626Z,12.10
2022-10-26T05:35:58.448Z,15.20
2022-10-26T05:38:27.736Z,16.67
2022-10-26T05:40:59.502Z,12.20
2022-10-26T05:43:28.699Z,15.07
2022-10-26T05:46:05.222Z,12.85
2022-10-26T05:48:34.784Z,14.20
2022-10-26T05:51:06.825Z,18.05
2022-10-26T05:53:35.920Z,20.02
2022-10-26T05:56:19.142Z,13.48
2022-10-26T05:58:53.032Z,13.32
2022-10-26T06:01:33.177Z,12.43
2022-10-26T06:04:20.670Z,22.65
2022-10-26T06:06:55.347Z,18.60
2022-10-26T06:09:28.987Z,19.40
2022-10-26T06:12:02.034Z,19.10
2022-10-26T06:14:32.152Z,16.80
2022-10-26T06:17:24.153Z,19.15
2022-10-26T06:20:18.440Z,17.25
2022-10-26T06:23:05.102Z,16.00
2022-10-26T06:25:48.494Z,15.13
2022-10-26T06:28:35.330Z,24.08
2022-10-26T06:31:04.081Z,18.88
2022-10-26T06:33:33.132Z,16.50
2022-10-26T06:36:20.120Z,21.75
2022-10-26T06:38:50.777Z,19.52
2022-10-26T06:41:23.962Z,15.30
2022-10-26T06:43:55.208Z,20.60
2022-10-26T06:49:28.106Z,19.35
2022-10-26T06:52:03.289Z,16.85
2022-10-26T06:54:51.336Z,21.73
2022-10-26T06:57:26.055Z,11.27
2022-10-26T07:00:03.407Z,19.20
2022-10-26T07:02:32.949Z,14.43
2022-10-26T07:05:02.007Z,16.00
2022-10-26T07:07:42.632Z,14.95
2022-10-26T07:10:12.783Z,15.50
2022-10-26T07:12:42.050Z,22.15
2022-10-26T07:15:14.547Z,14.25
2022-10-26T07:17:46.459Z,20.27
2022-10-26T07:20:16.025Z,17.08
2022-10-26T07:22:45.640Z,22.52
2022-10-26T07:25:14.860Z,21.67
2022-10-26T07:27:43.708Z,15.52
2022-10-26T07:30:15.076Z,15.50
2022-10-26T07:32:43.826Z,14.15
2022-10-26T07:35:14.657Z,18.02
2022-10-26T07:37:43.080Z,13.55
2022-10-26T07:40:13.281Z,13.27
2022-10-26T07:42:44.299Z,19.30
2022-10-26T07:45:18.204Z,12.10
2022-10-26T07:47:47.733Z,12.18
2022-10-26T07:50:24.553Z,15.82
2022-10-26T07:52:54.940Z,16.90
2022-10-26T07:55:27.040Z,16.45
2022-10-26T07:57:57.405Z,16.30
2022-10-26T08:00:29.812Z,11.88
2022-10-26T08:03:00.597Z,11.85
2022-10-26T08:08:00.704Z,13.18
2022-10-26T08:10:32.367Z,14.65
2022-10-26T08:13:01.920Z,10.55
2022-10-26T08:15:32.946Z,13.98
2022-10-26T08:18:01.698Z,10.02
2022-10-26T08:20:30.346Z,9.68
2022-10-26T08:23:00.215Z,13.85
2022-10-26T08:25:32.051Z,11.63
2022-10-26T08:28:04.278Z,12.75
2022-10-26T08:30:38.561Z,9.65
2022-10-26T08:33:09.467Z,7.90
2022-10-26T08:35:38.168Z,15.32
2022-10-26T08:38:07.885Z,10.20
2022-10-26T08:40:43.815Z,15.77
2022-10-26T08:43:23.422Z,17.15
2022-10-26T08:46:02.023Z,11.15
2022-10-26T08:48:37.766Z,12.80
2022-10-26T08:51:14.632Z,14.10
2022-10-26T08:53:49.667Z,9.43
2022-10-26T08:56:23.838Z,9.63
2022-10-26T08:58:58.794Z,13.07
2022-10-26T09:01:32.164Z,15.35
2022-10-26T09:04:04.239Z,16.60
2022-10-26T09:06:41.320Z,10.85
2022-10-26T09:09:18.638Z,11.93
2022-10-26T09:12:01.177Z,10.18
2022-10-26T09:14:43.660Z,7.60
2022-10-26T09:17:25.646Z,9.80
2022-10-26T09:20:34.581Z,8.50
2022-10-26T09:23:11.927Z,15.25
2022-10-26T09:25:42.634Z,9.05
2022-10-26T09:28:18.734Z,10.68
2022-10-26T09:30:49.324Z,6.97
2022-10-26T09:33:24.627Z,6.88
2022-10-26T09:38:32.773Z,10.38
2022-10-26T09:41:06.767Z,7.55
2022-10-26T09:43:42.323Z,7.25
2022-10-26T09:46:20.853Z,9.35
2022-10-26T09:48:57.707Z,9.38
2022-10-26T09:51:27.212Z,7.88
2022-10-26T09:53:57.736Z,10.20
2022-10-26T09:56:29.859Z,9.48
2022-10-26T09:59:04.388Z,12.20
2022-10-26T10:01:41.610Z,10.30
2022-10-26T10:04:22.895Z,9.90
2022-10-26T10:06:54.115Z,9.27
2022-10-26T10:09:26.294Z,7.68
2022-10-26T10:12:02.615Z,11.82
2022-10-26T10:14:37.372Z,8.43
2022-10-26T10:17:18.597Z,7.75
2022-10-26T10:22:48.943Z,9.55
2022-10-26T10:25:33.484Z,8.80
2022-10-26T10:28:05.079Z,7.25
2022-10-26T10:30:37.307Z,8.43
2022-10-26T10:33:32.983Z,12.40
2022-10-26T10:36:03.598Z,12.68
2022-10-26T10:38:39.381Z,12.10
2022-10-26T10:41:21.575Z,12.25
2022-10-26T10:43:59.016Z,12.48
2022-10-26T10:46:31.833Z,7.68
2022-10-26T10:49:06.653Z,12.30
2022-10-26T10:51:43.470Z,8.95
2022-10-26T10:54:24.803Z,11.45
2022-10-26T10:56:59.494Z,14.00
2022-10-26T11:00:06.552Z,13.52
2022-10-26T11:03:11.564Z,7.72
2022-10-26T11:06:19.170Z,8.25
2022-10-26T11:11:48.538Z,12.23
2022-10-26T11:14:25.798Z,7.55
2022-10-26T11:17:07.037Z,10.90
2022-10-26T11:19:48.135Z,11.35
2022-10-26T11:22:35.760Z,14.32
2022-10-26T11:25:19.751Z,12.55
2022-10-26T11:27:54.239Z,9.85
2022-10-26T11:30:31.694Z,9.10
2022-10-26T11:33:11.967Z,10.90
2022-10-26T11:35:57.432Z,17.83
2022-10-26T11:38:46.279Z,8.23
2022-10-26T11:41:46.270Z,12.48
2022-10-26T11:44:25.333Z,12.75
2022-10-26T11:47:01.334Z,8.68
2022-10-26T11:49:41.236Z,12.98
2022-10-26T11:52:40.547Z,11.00
2022-10-26T11:55:14.870Z,11.80
2022-10-26T11:57:47.085Z,12.52
2022-10-26T12:00:21.709Z,12.80
2022-10-26T12:02:57.302Z,9.10
2022-10-26T12:05:45.858Z,14.43
2022-10-26T12:08:21.709Z,11.90
2022-10-26T12:10:57.816Z,10.38
2022-10-26T12:13:36.749Z,12.50
2022-10-26T12:19:16.483Z,15.77
2022-10-26T12:21:45.820Z,13.90
2022-10-26T12:24:34.306Z,14.80
2022-10-26T12:27:05.916Z,8.02
2022-10-26T12:29:49.758Z,8.82
2022-10-26T12:32:55.162Z,15.13
2022-10-26T12:35:45.341Z,13.43
2022-10-26T12:39:01.135Z,10.93
2022-10-26T12:44:39.975Z,9.45
2022-10-26T12:47:10.154Z,9.23
2022-10-26T12:50:03.126Z,11.38
2022-10-26T12:52:59.121Z,13.80
2022-10-26T12:56:34.236Z,14.63
2022-10-26T12:59:42.297Z,9.15
2022-10-26T13:06:21.014Z,9.20
2022-10-26T13:08:58.576Z,8.98
2022-10-26T13:11:33.980Z,10.35
2022-10-26T13:14:06.609Z,10.23
2022-10-26T13:16:36.334Z,8.77
2022-10-26T13:19:06.559Z,11.85
2022-10-26T13:21:49.182Z,13.98
2022-10-26T13:24:19.283Z,10.57
2022-10-26T13:27:43.779Z,9.25
2022-10-26T13:30:45.473Z,10.35
2022-10-26T13:33:40.485Z,14.25
2022-10-26T13:36:32.163Z,7.65
2022-10-26T13:39:08.515Z,8.25
2022-10-26T13:41:48.710Z,9.95
2022-10-26T13:44:26.110Z,8.98
2022-10-26T13:47:01.433Z,6.13
2022-10-26T13:49:36.906Z,6.65
2022-10-26T13:52:16.847Z,9.75
2022-10-26T13:54:51.775Z,11.68
2022-10-26T13:57:30.965Z,11.40
2022-10-26T14:00:04.153Z,9.23
2022-10-26T14:05:20.430Z,12.90
2022-10-26T14:07:56.935Z,7.05
2022-10-26T14:10:32.222Z,14.18
2022-10-26T14:13:02.848Z,10.57
2022-10-26T14:15:36.033Z,9.52
2022-10-26T14:18:06.561Z,8.05
2022-10-26T14:20:36.370Z,14.38
2022-10-26T14:23:27.984Z,8.18
2022-10-26T14:25:59.399Z,8.18
2022-10-26T14:28:33.654Z,9.65
2022-10-26T14:31:23.856Z,8.15
2022-10-26T14:33:55.635Z,10.00
2022-10-26T14:36:30.728Z,12.85
2022-10-26T14:39:10.245Z,11.90
2022-10-26T14:41:41.548Z,13.10
2022-10-26T14:44:20.625Z,9.13
2022-10-26T14:46:50.530Z,12.63
2022-10-26T14:49:24.194Z,10.32
2022-10-26T14:52:00.636Z,9.77
2022-10-26T14:54:32.188Z,11.75
2022-10-26T14:57:02.866Z,12.23
2022-10-26T14:59:33.250Z,15.13
2022-10-26T15:02:22.957Z,9.82
2022-10-26T15:05:02.526Z,10.07
2022-10-26T15:07:40.979Z,12.75
2022-10-26T15:10:50.056Z,9.27
2022-10-26T15:13:30.017Z,12.32
2022-10-26T15:16:09.629Z,8.40
2022-10-26T15:18:40.390Z,7.50
2022-10-26T15:21:24.699Z,9.70
2022-10-26T15:23:55.360Z,9.10
2022-10-26T15:26:26.419Z,14.23
2022-10-26T15:28:57.082Z,11.00
2022-10-26T15:31:35.766Z,8.30
2022-10-26T15:34:25.616Z,11.48
2022-10-26T15:36:55.842Z,10.07
2022-10-26T15:39:26.122Z,12.02
2022-10-26T15:41:58.404Z,14.98
2022-10-26T15:44:27.382Z,10.93
2022-10-26T15:47:08.647Z,9.45
2022-10-26T15:49:37.874Z,7.63
2022-10-26T15:52:11.169Z,18.33
2022-10-26T15:54:40.769Z,6.80
2022-10-26T15:57:17.954Z,10.57
2022-10-26T15:59:51.591Z,10.55
2022-10-26T16:02:20.543Z,11.25
2022-10-26T16:04:49.494Z,9.95
2022-10-26T16:07:19.185Z,13.02
2022-10-26T16:09:47.895Z,6.35
2022-10-26T16:12:18.195Z,5.97
2022-10-26T16:15:04.352Z,9.23
2022-10-26T16:17:35.143Z,9.82
2022-10-26T16:20:09.087Z,11.35
2022-10-26T16:22:40.767Z,12.68
2022-10-26T16:28:04.148Z,12.73
2022-10-26T16:30:38.411Z,12.07
2022-10-26T16:33:10.149Z,9.93
2022-10-26T16:41:37.851Z,15.68
2022-10-26T16:44:13.585Z,6.22
2022-10-26T16:46:43.910Z,13.80
2022-10-26T16:52:20.246Z,17.90
2022-10-26T16:54:49.158Z,8.38
2022-10-26T16:57:18.249Z,10.25
2022-10-26T16:59:49.503Z,12.65
2022-10-26T17:02:20.030Z,11.35
2022-10-26T17:04:51.714Z,13.70
2022-10-26T17:07:22.401Z,9.50
2022-10-26T17:09:51.959Z,10.82
2022-10-26T17:15:03.112Z,11.35
2022-10-26T17:17:32.094Z,14.50
2022-10-26T17:20:01.315Z,13.45
2022-10-26T17:22:31.101Z,8.68
2022-10-26T17:25:00.508Z,11.88
2022-10-26T17:27:29.779Z,16.33
2022-10-26T17:30:00.677Z,15.77
2022-10-26T17:32:33.010Z,17.48
2022-10-26T17:35:03.223Z,10.65
2022-10-26T17:37:39.626Z,11.43
2022-10-26T17:40:12.588Z,12.77
2022-10-26T17:42:47.494Z,11.10
2022-10-26T17:45:19.121Z,14.75
2022-10-26T17:47:48.411Z,12.93
2022-10-26T17:50:18.116Z,16.60
2022-10-26T17:52:47.704Z,13.20
2022-10-26T17:55:18.906Z,9.73
2022-10-26T17:57:49.975Z,14.63
2022-10-26T18:00:27.549Z,11.95
2022-10-26T18:03:00.871Z,15.63
2022-10-26T18:05:31.820Z,14.63
2022-10-26T18:08:04.071Z,15.70
2022-10-26T18:10:38.684Z,10.32
2022-10-26T18:13:08.173Z,15.90
2022-10-26T18:15:46.899Z,14.32
2022-10-26T18:18:21.362Z,10.13
2022-10-26T18:20:54.425Z,11.53
2022-10-26T18:23:25.799Z,17.73
2022-10-26T18:26:06.654Z,10.45
2022-10-26T18:28:37.978Z,10.18
2022-10-26T18:31:11.379Z,10.75
2022-10-26T18:33:40.466Z,12.48
2022-10-26T18:36:12.528Z,15.75
2022-10-26T18:38:45.677Z,13.68
2022-10-26T18:41:18.624Z,13.32
2022-10-26T18:43:51.089Z,14.10
2022-10-26T18:46:27.635Z,26.05
2022-10-26T18:48:58.726Z,14.70
2022-10-26T18:51:34.135Z,16.27
2022-10-26T18:54:04.679Z,12.27
2022-10-26T18:56:33.951Z,11.30
2022-10-26T18:59:03.147Z,10.90
2022-10-26T19:01:41.759Z,12.32
2022-10-26T19:04:17.001Z,10.80
2022-10-26T19:06:47.666Z,13.82
2022-10-26T19:09:17.763Z,13.20
2022-10-26T19:11:47.351Z,15.23
2022-10-26T19:14:16.067Z,16.02
2022-10-26T19:16:48.073Z,13.63
2022-10-26T19:19:20.803Z,13.82
2022-10-26T19:21:51.005Z,18.70
2022-10-26T19:24:23.288Z,14.70
2022-10-26T19:26:56.999Z,14.32
2022-10-26T19:29:26.095Z,18.00
2022-10-26T19:32:00.620Z,13.60
2022-10-26T19:34:30.332Z,25.83
2022-10-26T19:37:00.739Z,10.25
2022-10-26T19:39:31.564Z,12.38
2022-10-26T19:42:00.807Z,12.43
2022-10-26T19:44:30.694Z,13.50
2022-10-26T19:47:01.166Z,13.90
2022-10-26T19:49:33.125Z,12.27
2022-10-26T19:52:03.416Z,7.95
2022-10-26T19:54:33.947Z,13.60
2022-10-26T19:57:07.926Z,12.23
2022-10-26T19:59:41.032Z,16.65
2022-10-26T20:02:11.271Z,16.33
2022-10-26T20:04:40.882Z,14.18
2022-10-26T20:07:09.993Z,14.02
2022-10-26T20:09:39.290Z,14.57
2022-10-26T20:12:12.573Z,15.00
2022-10-26T20:14:42.673Z,12.40
2022-10-26T20:17:12.795Z,18.00
2022-10-26T20:19:46.102Z,18.65
2022-10-26T20:22:20.213Z,12.25
2022-10-26T20:24:58.014Z,18.52
2022-10-26T20:27:27.588Z,16.58
2022-10-26T20:30:00.854Z,12.38
2022-10-26T20:32:34.557Z,13.60
2022-10-26T20:37:56.012Z,19.35
2022-10-26T20:40:27.815Z,18.85
2022-10-26T20:42:57.703Z,11.73
2022-10-26T20:45:30.788Z,16.58
2022-10-26T20:48:04.247Z,13.35
2022-10-26T20:50:35.528Z,17.45
2022-10-26T20:53:12.744Z,21.65
2022-10-26T20:55:47.882Z,13.73
2022-10-26T21:01:01.989Z,13.60
2022-10-26T21:03:38.444Z,13.68
2022-10-26T21:08:46.872Z,13.93
2022-10-26T21:11:15.936Z,10.68
2022-10-26T21:13:47.923Z,16.58
2022-10-26T21:16:19.323Z,20.23
2022-10-26T21:18:52.569Z,19.10
2022-10-26T21:21:23.914Z,13.85
2022-10-26T21:23:58.340Z,17.17
2022-10-26T21:26:28.672Z,15.50
2022-10-26T21:28:58.092Z,27.13
2022-10-26T21:31:27.410Z,17.58
2022-10-26T21:34:03.630Z,20.95
2022-10-26T21:36:34.177Z,20.98
2022-10-26T21:39:05.623Z,14.68
2022-10-26T21:41:36.658Z,17.80
2022-10-26T21:44:23.144Z,22.42
2022-10-26T21:47:01.997Z,11.60
2022-10-26T21:49:34.296Z,22.58
2022-10-26T21:52:03.676Z,13.82
2022-10-26T21:54:39.050Z,13.35
2022-10-26T21:59:38.294Z,21.70
2022-10-26T22:02:09.222Z,23.02
2022-10-26T22:04:40.713Z,17.17
2022-10-26T22:07:12.208Z,17.63
2022-10-26T22:10:07.552Z,19.38
2022-10-26T22:12:38.912Z,20.02
2022-10-26T22:15:09.623Z,20.77
2022-10-26T22:17:44.278Z,28.05
2022-10-26T22:20:17.744Z,27.17
2022-10-26T22:22:48.500Z,15.52
2022-10-26T22:25:20.343Z,20.83
2022-10-26T22:27:50.559Z,23.45
2022-10-26T22:30:19.971Z,22.80
2022-10-26T22:32:51.447Z,24.90
2022-10-26T22:35:29.569Z,24.02
2022-10-26T22:38:01.224Z,22.33
2022-10-26T22:40:31.497Z,20.58
2022-10-26T22:43:01.616Z,23.35
2022-10-26T22:45:35.795Z,22.83
2022-10-26T22:50:47.012Z,22.70
2022-10-26T23:02:02.705Z,23.35
2022-10-26T23:07:50.997Z,18.70
2022-10-26T23:13:25.758Z,23.27
2022-10-26T23:16:08.243Z,26.88
2022-10-26T23:21:53.052Z,15.93
2022-10-26T23:24:30.659Z,17.98
2022-10-26T23:27:18.376Z,15.95
2022-10-26T23:29:50.307Z,20.13
2022-10-26T23:35:24.993Z,20.38
2022-10-26T23:38:02.623Z,16.13
2022-10-26T23:40:45.846Z,20.27
2022-10-26T23:43:36.721Z,16.98
